EGVNEGYD

Guest
Details From EGVN - RAF Brize Norton
To EGYD - RAF Cranwell
Flight Number -
Tags generated
Created
Modified
Stats Distance 87 nm / 160 km
Max Altitude 3,000 ft / 914 m
Waypoints 3
Social Downloads 0
Likes 0
Share VATSIM

Download

Looking for another format? Having issues loading an existing format? Contact us
Advertisement - Login to hide

Notes

Basic altitude profile: - Ascent Rate: 2500ft/min - Ascent Speed: 250kts - Cruise Altitude: 35000ft - Cruise Speed: 420kts - Descent Rate: 1500ft/min - Descent Speed: 250kts Options: - Use NATs: yes - Use PACOTS: yes - Use low airways: yes - Use high airways: yes

Route

EGVN NEDEX EGYD

ID Type Via Altitude Latitude Longitude Leg Dist Tot Dist Heading (true) Name
O EGVN APT - 0 ft / 0 m 51.74998˚ -1.58296˚ - 0 nm - RAF Brize Norton
NEDEX FIX - 3,000 ft / 914 m 51.87694˚ -1.47222˚ 8 nm 8 nm 28° / 28° -
O EGYD APT - 0 ft / 0 m 53.02875˚ -0.48954˚ 77 nm 86 nm 27° / 28° RAF Cranwell

Altitude Profile

Advertisement - Login to hide

EGVN

Details ICAO EGVN (BZZ)
Name RAF Brize Norton
Region United Kingdom
Timezone Europe/London (UTC+0.0)
Stats Elevation 289 ft / 88 m (AMSL)
Location 51.749979° -1.582958°
Runways 1
Magnetic Variation 0.987° W

METAR

EGVN 181750Z 31002KT 5000 BR FEW003 01/01 Q1032 BECMG 0600 FG BKN000

Decode

TAF

TAF EGVN 181647Z 1818/1918 34005KT 5000 BR FEW003 PROB40 1818/1821 0600 FG BKN000 BECMG 1821/1824 0200 FG VV/// PROB40 TEMPO 1900/1909 FZFG BECMG 1911/1914 5000 BR BKN008 PROB30 1916/1918 2000 BR BKN002

Decode

Departure Runways

ID Width Length Bearing (true) Bearing (mag) Surface Threshold Offset Overrun Length
08 184 ft / 56 m 10,016 ft / 3,053 m 73.42° 74.41° Asphalt 0 ft / 0 m 459 ft / 140 m
26 184 ft / 56 m 10,016 ft / 3,053 m 253.46° 254.45° Asphalt 0 ft / 0 m 577 ft / 176 m

EGYD

Details ICAO EGYD
Name RAF Cranwell
Region United Kingdom
Timezone Europe/London (UTC+0.0)
Stats Elevation 218 ft / 66 m (AMSL)
Location 53.028754° -0.489538°
Runways 3
Magnetic Variation 0.750° W

METAR

EGYD 181750Z AUTO 25011KT 9000 // NCD 02/01 Q1031

Decode

TAF

Not found

Destination Runways

ID Width Length Bearing (true) Bearing (mag) Surface Threshold Offset Overrun Length
01 148 ft / 45 m 4,789 ft / 1,460 m 8.18° 8.93° Asphalt 0 ft / 0 m 85 ft / 26 m
09 148 ft / 45 m 5,972 ft / 1,820 m 82.69° 83.44° Asphalt 0 ft / 0 m 620 ft / 189 m
09R 131 ft / 40 m 2,489 ft / 759 m 82.94° 83.69° Grass 0 ft / 0 m 0 ft / 0 m
19 148 ft / 45 m 4,789 ft / 1,460 m 188.18° 188.93° Asphalt 0 ft / 0 m 85 ft / 26 m
27 148 ft / 45 m 5,972 ft / 1,820 m 262.71° 263.46° Asphalt 0 ft / 0 m 351 ft / 107 m
27L 131 ft / 40 m 2,489 ft / 759 m 262.95° 263.70° Grass 0 ft / 0 m 0 ft / 0 m

Approach Navaids

Runway Type Ident Frequency Range Bearing (true) Bearing (mag) Slope Elevation
27 Localiser CW 109.70 MHz 18 nm / 33 km 262.67° 263.42° - 218 ft / 66 m (AMSL)
27 Glidescope CW 109.70 MHz 10 nm / 19 km 262.70° 263.45° 3.00° 218 ft / 66 m (AMSL)

Popular Alternatives